createdAt,value
2018-07-13T00:00:36.601Z,99931.95
2018-07-13T00:05:23.162Z,99917.13
2018-07-13T00:10:06.759Z,99921.11
2018-07-13T00:15:01.308Z,99915.36
2018-07-13T00:19:44.874Z,99918.83
2018-07-13T00:24:28.537Z,99915.86
2018-07-13T00:29:12.267Z,99906.16
2018-07-13T00:34:01.388Z,99906.67
2018-07-13T00:38:44.922Z,99908.05
2018-07-13T00:43:29.545Z,99911.67
2018-07-13T00:48:13.128Z,99913.12
2018-07-13T00:52:56.463Z,99909.88
2018-07-13T00:57:43.316Z,99906.11
2018-07-13T01:02:26.909Z,99898.55
2018-07-13T01:07:14.192Z,99895.53
2018-07-13T01:11:57.775Z,99898.03
2018-07-13T01:16:41.488Z,99901.48
2018-07-13T01:21:25.153Z,99902.28
2018-07-13T01:26:12.190Z,99897.55
2018-07-13T01:30:55.738Z,99900.94
2018-07-13T01:35:42.668Z,99904.41
2018-07-13T01:40:26.113Z,99900.56
2018-07-13T01:45:10.847Z,99907.14
2018-07-13T01:49:54.449Z,99907.81
2018-07-13T01:54:38.148Z,99904.50
2018-07-13T01:59:21.500Z,99904.06
2018-07-13T02:04:05.206Z,99903.73
2018-07-13T02:08:48.764Z,99903.28
2018-07-13T02:13:35.725Z,99908.05
2018-07-13T02:18:19.172Z,99902.92
2018-07-13T02:23:02.739Z,99905.38
2018-07-13T02:27:49.782Z,99908.28
2018-07-13T02:32:33.399Z,99915.86
2018-07-13T02:37:20.012Z,99919.84
2018-07-13T02:42:03.572Z,99915.02
2018-07-13T02:46:48.199Z,99922.38
2018-07-13T02:51:31.502Z,99926.10
2018-07-13T02:56:16.055Z,99910.34
2018-07-13T03:00:59.452Z,99919.09
2018-07-13T03:05:46.142Z,99923.91
2018-07-13T03:10:29.631Z,99924.89
2018-07-13T03:15:14.190Z,99927.05
2018-07-13T03:19:57.811Z,99919.09
2018-07-13T03:24:42.248Z,99914.11
2018-07-13T03:29:25.924Z,99911.91
2018-07-13T03:34:12.654Z,99909.63
2018-07-13T03:38:56.193Z,99911.28
2018-07-13T03:43:44.028Z,99909.06
2018-07-13T03:48:27.513Z,99911.06
2018-07-13T03:53:12.066Z,99911.98
2018-07-13T03:57:55.798Z,99916.13
2018-07-13T04:02:39.394Z,99904.48
2018-07-13T04:07:26.519Z,99905.67
2018-07-13T04:12:10.158Z,99910.48
2018-07-13T04:16:59.651Z,99908.55
2018-07-13T04:21:43.278Z,99909.84
2018-07-13T04:26:27.990Z,99905.33
2018-07-13T04:31:11.667Z,99913.01
2018-07-13T04:35:58.901Z,99907.97
2018-07-13T04:40:42.599Z,99900.95
2018-07-13T04:45:29.762Z,99907.89
2018-07-13T04:50:13.360Z,99908.63
2018-07-13T04:55:00.407Z,99903.95
2018-07-13T04:59:45.952Z,99910.89
2018-07-13T05:04:30.912Z,99909.24
2018-07-13T05:09:14.906Z,99903.72
2018-07-13T05:13:58.478Z,99904.56
2018-07-13T05:18:42.058Z,99903.23
2018-07-13T05:23:28.716Z,99902.59
2018-07-13T05:28:12.162Z,99898.09
2018-07-13T05:32:55.913Z,99893.81
2018-07-13T05:37:39.374Z,99890.88
2018-07-13T05:42:23.004Z,99894.72
2018-07-13T05:47:10.202Z,99892.03
2018-07-13T05:51:53.714Z,99886.41
2018-07-13T05:56:42.516Z,99884.54
2018-07-13T06:01:25.957Z,99884.28
2018-07-13T06:06:09.704Z,99885.34
2018-07-13T06:10:53.238Z,99889.63
2018-07-13T06:15:39.973Z,99885.44
2018-07-13T06:20:23.473Z,99885.98
2018-07-13T06:25:11.517Z,99878.59
2018-07-13T06:29:55.065Z,99875.00
2018-07-13T06:34:38.757Z,99873.92
2018-07-13T06:39:22.258Z,99874.50
2018-07-13T06:44:05.853Z,99873.64
2018-07-13T06:48:49.607Z,99869.92
2018-07-13T06:53:36.302Z,99876.01
2018-07-13T06:58:30.683Z,99872.50
2018-07-13T07:03:15.421Z,99874.55
2018-07-13T07:07:58.984Z,99870.19
2018-07-13T07:13:02.956Z,99870.59
2018-07-13T07:17:46.517Z,99874.30
2018-07-13T07:22:30.237Z,99875.17
2018-07-13T07:27:13.994Z,99876.02
2018-07-13T07:31:57.672Z,99872.88
2018-07-13T07:36:41.357Z,99862.64
2018-07-13T07:41:25.215Z,99862.44
2018-07-13T07:46:08.811Z,99869.02
2018-07-13T07:50:52.446Z,99879.36
2018-07-13T07:55:36.072Z,99867.89
2018-07-13T08:00:19.653Z,99868.42
2018-07-13T08:05:03.530Z,99870.45
2018-07-13T08:09:47.008Z,99877.55
2018-07-13T08:14:34.732Z,99874.75
2018-07-13T08:19:18.266Z,99873.18
2018-07-13T08:24:03.416Z,99868.14
2018-07-13T08:28:48.337Z,99869.63
2018-07-13T08:33:32.043Z,99870.50
2018-07-13T08:38:15.619Z,99875.75
2018-07-13T08:43:00.065Z,99873.19
2018-07-13T08:47:43.663Z,99859.76
2018-07-13T08:52:27.360Z,99861.94
2018-07-13T08:57:10.758Z,99860.00
2018-07-13T09:01:54.349Z,99859.23
2018-07-13T09:06:39.057Z,99848.59
2018-07-13T09:11:35.449Z,99863.26
2018-07-13T09:16:20.244Z,99850.66
2018-07-13T09:21:04.442Z,99841.87
2018-07-13T09:25:51.798Z,99843.45
2018-07-13T09:30:35.262Z,99846.66
2018-07-13T09:35:19.736Z,99839.82
2018-07-13T09:40:03.242Z,99842.42
2018-07-13T09:44:48.555Z,99844.86
2018-07-13T09:49:32.264Z,99837.64
2018-07-13T09:54:16.722Z,99831.97
2018-07-13T09:59:00.185Z,99819.16
2018-07-13T10:03:44.737Z,99815.75
2018-07-13T10:09:58.259Z,99827.63
2018-07-13T10:14:42.853Z,99826.66
2018-07-13T10:19:26.264Z,99824.97
2018-07-13T10:24:09.803Z,99828.05
2018-07-13T10:28:53.381Z,99825.66
2018-07-13T10:33:40.020Z,99827.86
2018-07-13T10:38:23.634Z,99816.20
2018-07-13T10:43:07.382Z,99814.64
2018-07-13T10:47:51.229Z,99799.67
2018-07-13T10:52:34.972Z,99783.66
2018-07-13T10:57:18.553Z,99781.63
2018-07-13T11:02:02.473Z,99774.44
2018-07-13T11:06:46.069Z,99772.41
2018-07-13T11:11:29.721Z,99760.69
2018-07-13T11:16:14.450Z,99757.19
2018-07-13T11:20:58.042Z,99766.30
2018-07-13T11:25:42.827Z,99766.22
2018-07-13T11:30:26.098Z,99769.13
2018-07-13T11:35:12.749Z,99777.53
2018-07-13T11:39:56.345Z,99786.95
2018-07-13T11:44:40.015Z,99796.33
2018-07-13T11:49:23.653Z,99777.94
2018-07-13T11:54:10.928Z,99766.91
2018-07-13T11:58:54.594Z,99781.50
2018-07-13T12:03:41.712Z,99805.53
2018-07-13T12:08:25.311Z,99798.80
2018-07-13T12:13:12.892Z,99798.14
2018-07-13T12:17:56.501Z,99794.94
2018-07-13T12:22:43.230Z,99787.84
2018-07-13T12:27:26.795Z,99787.55
2018-07-13T12:32:11.342Z,99790.89
2018-07-13T12:36:54.988Z,99778.56
2018-07-13T12:41:38.545Z,99763.22
2018-07-13T12:46:22.330Z,99756.61
2018-07-13T12:51:05.919Z,99748.66
2018-07-13T12:55:49.562Z,99770.73
2018-07-13T13:00:33.025Z,99811.83
2018-07-13T13:05:31.610Z,99806.06
2018-07-13T13:10:15.294Z,99829.88
2018-07-13T13:14:58.997Z,99835.40
2018-07-13T13:19:42.583Z,99830.67
2018-07-13T13:24:27.419Z,99816.67
2018-07-13T13:29:11.115Z,99810.41
2018-07-13T13:33:54.636Z,99821.78
2018-07-13T13:38:38.166Z,99820.27
2018-07-13T13:43:24.840Z,99813.47
2018-07-13T13:48:08.510Z,99809.84
2018-07-13T13:52:52.324Z,99798.83
2018-07-13T13:57:35.918Z,99821.39
2018-07-13T14:02:20.567Z,99829.69
2018-07-13T14:07:03.949Z,99826.34
2018-07-13T14:11:47.697Z,99831.05
2018-07-13T14:16:31.332Z,99826.16
2018-07-13T14:21:15.011Z,99834.08
2018-07-13T14:25:58.664Z,99841.00
2018-07-13T14:30:42.259Z,99827.05
2018-07-13T14:35:29.561Z,99817.11
2018-07-13T14:40:13.152Z,99826.88
2018-07-13T14:44:56.840Z,99815.27
2018-07-13T14:49:46.443Z,99819.98
2018-07-13T14:54:30.012Z,99821.32
2018-07-13T14:59:13.609Z,99817.95
2018-07-13T15:04:00.342Z,99811.67
2018-07-13T15:08:43.833Z,99803.17
2018-07-13T15:13:27.472Z,99800.00
2018-07-13T15:18:11.110Z,99801.17
2018-07-13T15:22:54.766Z,99805.03
2018-07-13T15:27:38.373Z,99790.47
2018-07-13T15:32:23.002Z,99781.52
2018-07-13T15:37:06.562Z,99780.33
2018-07-13T15:41:50.471Z,99785.20
2018-07-13T15:46:34.036Z,99779.75
2018-07-13T15:51:17.647Z,99788.47
2018-07-13T15:56:01.268Z,99798.91
2018-07-13T16:00:44.792Z,99805.95
2018-07-13T16:05:28.752Z,99826.34
2018-07-13T16:10:12.455Z,99835.61
2018-07-13T16:14:56.226Z,99845.89
2018-07-13T16:19:39.696Z,99847.94
2018-07-13T16:24:23.545Z,99851.03
2018-07-13T16:29:07.237Z,99849.56
2018-07-13T16:33:54.406Z,99840.70
2018-07-13T16:38:38.009Z,99840.47
2018-07-13T16:43:25.055Z,99863.63
2018-07-13T16:48:08.626Z,99883.33
2018-07-13T16:52:53.373Z,99898.31
2018-07-13T16:57:37.018Z,99899.84
2018-07-13T17:02:20.930Z,99927.19
2018-07-13T17:07:04.798Z,99917.02
2018-07-13T17:11:48.300Z,99934.63
2018-07-13T17:16:31.974Z,99903.18
2018-07-13T17:21:16.636Z,99882.47
2018-07-13T17:26:00.875Z,99883.58
2018-07-13T17:30:44.418Z,99883.54
2018-07-13T17:35:28.911Z,99881.34
2018-07-13T17:40:12.547Z,99872.95
2018-07-13T17:45:01.683Z,99856.92
2018-07-13T17:49:45.118Z,99846.48
2018-07-13T17:54:28.791Z,99833.25
2018-07-13T17:59:12.465Z,99830.88
2018-07-13T18:03:56.300Z,99812.40
2018-07-13T18:08:39.853Z,99818.39
2018-07-13T18:13:23.671Z,99808.48
2018-07-13T18:18:07.980Z,99777.22
2018-07-13T18:22:52.521Z,99825.78
2018-07-13T18:27:36.140Z,99868.86
2018-07-13T18:32:23.085Z,99881.02
2018-07-13T18:37:06.635Z,99882.05
2018-07-13T18:41:50.418Z,99891.01
2018-07-13T18:46:34.102Z,99895.59
2018-07-13T18:51:18.014Z,99890.06
2018-07-13T18:56:01.569Z,99892.58
2018-07-13T19:00:45.262Z,99894.36
2018-07-13T19:05:28.995Z,99902.06
2018-07-13T19:10:12.698Z,99899.12
2018-07-13T19:14:57.054Z,99900.96
2018-07-13T19:19:40.741Z,99895.04
2018-07-13T19:24:24.395Z,99891.30
2018-07-13T19:29:08.240Z,99884.50
2018-07-13T19:33:55.650Z,99878.17
2018-07-13T19:38:39.288Z,99884.44
2018-07-13T19:43:24.536Z,99888.38
2018-07-13T19:48:08.325Z,99893.56
2018-07-13T19:52:52.048Z,99887.70
2018-07-13T19:57:36.247Z,99889.75
2018-07-13T20:02:19.901Z,99889.72
2018-07-13T20:07:03.986Z,99880.92
2018-07-13T20:11:47.666Z,99886.41
2018-07-13T20:16:31.301Z,99890.81
2018-07-13T20:21:15.974Z,99884.31
2018-07-13T20:25:59.555Z,99879.02
2018-07-13T20:30:46.803Z,99875.22
2018-07-13T20:35:30.506Z,99886.39
2018-07-13T20:40:14.203Z,99879.70
2018-07-13T20:44:58.273Z,99891.30
2018-07-13T20:49:41.889Z,99892.70
2018-07-13T20:54:28.531Z,99887.37
2018-07-13T20:59:12.234Z,99885.28
2018-07-13T21:04:00.090Z,99877.91
2018-07-13T21:08:43.649Z,99874.70
2018-07-13T21:13:30.825Z,99872.08
2018-07-13T21:18:14.504Z,99876.78
2018-07-13T21:23:01.867Z,99872.31
2018-07-13T21:27:45.397Z,99863.47
2018-07-13T21:32:29.196Z,99868.20
2018-07-13T21:37:12.562Z,99875.08
2018-07-13T21:41:57.264Z,99864.41
2018-07-13T21:46:40.836Z,99875.21
2018-07-13T21:51:24.571Z,99866.94
2018-07-13T21:56:08.000Z,99859.86
2018-07-13T22:00:52.722Z,99857.33
2018-07-13T22:05:36.416Z,99864.19
2018-07-13T22:10:20.182Z,99875.33
2018-07-13T22:15:03.827Z,99879.80
2018-07-13T22:19:47.382Z,99881.29
2018-07-13T22:24:31.158Z,99878.91
2018-07-13T22:29:14.711Z,99877.76
2018-07-13T22:33:59.332Z,99888.82
2018-07-13T22:38:42.668Z,99900.73
2018-07-13T22:43:26.240Z,99897.44
2018-07-13T22:48:09.904Z,99888.77
2018-07-13T22:52:53.589Z,99873.52
2018-07-13T22:57:37.221Z,99858.58
2018-07-13T23:02:24.653Z,99851.05
2018-07-13T23:07:08.269Z,99846.82
2018-07-13T23:11:52.472Z,99839.78
2018-07-13T23:16:36.029Z,99839.48
2018-07-13T23:21:20.826Z,99833.41
2018-07-13T23:26:04.300Z,99839.72
2018-07-13T23:30:52.228Z,99844.64
2018-07-13T23:35:35.572Z,99857.19
2018-07-13T23:40:22.667Z,99862.08
2018-07-13T23:45:06.080Z,99847.70
2018-07-13T23:49:49.589Z,99842.31
2018-07-13T23:54:34.277Z,99840.63
2018-07-13T23:59:17.641Z,99835.20
